Loudon, New Hampshire
Current Conditions -  °F | °C
As of 12:51 PM on Saturday 25 Oct 2014 (Local Time) from KCON Reporting Station
Clear Clear  
Wind Chill: 63°   Ceiling: Unl
Heat Index: 63°   Visibility: 10mi
Dew Point: 37°   Wind: 9mph
Humidity: 38%   Direction: 280°W
Pressure: 29.65"   Gusts: NA
Location:  43.18°N, 71.56°W
Report Text: KCON 251651Z AUTO 28008KT 10SM CLR 17/03 A2965 RMK AO2 SLP041 T01720028
Loading
Personal Weather Stations






























Interactive Weather Map
Tropical Storm Tracking
New forecast layout! Learn more

10-Day Weather Forecast

Advertisements
Track Severe Weather on mobile